createdAt,value
2023-05-30T00:01:39.930Z,2.92
2023-05-30T00:04:08.648Z,3.00
2023-05-30T00:06:37.766Z,3.25
2023-05-30T00:09:06.675Z,3.38
2023-05-30T00:11:36.631Z,3.17
2023-05-30T00:14:05.602Z,3.53
2023-05-30T00:16:35.644Z,3.35
2023-05-30T00:19:07.170Z,3.20
2023-05-30T00:21:36.735Z,3.20
2023-05-30T00:24:05.706Z,3.00
2023-05-30T00:26:35.700Z,2.92
2023-05-30T00:29:04.503Z,3.20
2023-05-30T00:31:33.274Z,3.35
2023-05-30T00:34:02.579Z,3.08
2023-05-30T00:36:31.075Z,3.30
2023-05-30T00:39:00.114Z,3.25
2023-05-30T00:41:29.143Z,3.38
2023-05-30T00:43:58.867Z,3.10
2023-05-30T00:46:30.711Z,3.08
2023-05-30T00:49:00.320Z,3.13
2023-05-30T00:51:30.639Z,3.05
2023-05-30T00:54:00.149Z,3.58
2023-05-30T00:56:29.156Z,3.40
2023-05-30T00:59:00.705Z,3.50
2023-05-30T01:01:30.497Z,3.10
2023-05-30T01:03:59.545Z,3.15
2023-05-30T01:06:30.557Z,3.22
2023-05-30T01:09:00.963Z,2.92
2023-05-30T01:11:37.969Z,3.58
2023-05-30T01:14:20.122Z,3.42
2023-05-30T01:16:56.632Z,3.20
2023-05-30T01:19:56.410Z,3.38
2023-05-30T01:22:40.722Z,3.45
2023-05-30T01:25:29.437Z,2.95
2023-05-30T01:28:08.898Z,3.60
2023-05-30T01:30:42.394Z,3.40
2023-05-30T01:33:12.058Z,3.47
2023-05-30T01:35:42.383Z,3.70
2023-05-30T01:38:11.344Z,3.42
2023-05-30T01:40:42.075Z,3.28
2023-05-30T01:43:25.877Z,3.50
2023-05-30T01:46:03.868Z,3.47
2023-05-30T01:48:42.128Z,3.20
2023-05-30T01:51:22.672Z,3.72
2023-05-30T01:54:00.343Z,3.65
2023-05-30T01:56:30.981Z,3.75
2023-05-30T01:59:04.553Z,3.42
2023-05-30T02:01:33.885Z,3.30
2023-05-30T02:04:02.265Z,3.33
2023-05-30T02:06:30.948Z,3.13
2023-05-30T02:08:59.654Z,3.70
2023-05-30T02:11:28.229Z,3.83
2023-05-30T02:13:58.784Z,3.72
2023-05-30T02:16:28.640Z,3.38
2023-05-30T02:19:00.030Z,3.75
2023-05-30T02:21:28.670Z,3.70
2023-05-30T02:23:57.322Z,3.42
2023-05-30T02:26:28.493Z,3.70
2023-05-30T02:28:57.156Z,3.60
2023-05-30T02:31:27.924Z,3.65
2023-05-30T02:33:56.576Z,3.28
2023-05-30T02:36:25.724Z,3.63
2023-05-30T02:38:54.402Z,3.70
2023-05-30T02:41:23.990Z,3.90
2023-05-30T02:43:53.142Z,3.47
2023-05-30T02:46:21.873Z,3.60
2023-05-30T02:48:51.955Z,3.58
2023-05-30T02:51:20.404Z,3.85
2023-05-30T02:53:48.895Z,3.60
2023-05-30T02:56:21.354Z,4.03
2023-05-30T02:59:10.449Z,4.00
2023-05-30T03:01:47.431Z,3.42
2023-05-30T03:04:18.206Z,3.50
2023-05-30T03:06:52.067Z,3.80
2023-05-30T03:09:24.045Z,3.40
2023-05-30T03:11:52.922Z,4.10
2023-05-30T03:14:21.852Z,3.75
2023-05-30T03:16:51.054Z,3.85
2023-05-30T03:19:21.298Z,3.75
2023-05-30T03:21:50.794Z,3.85
2023-05-30T03:24:21.270Z,4.05
2023-05-30T03:26:50.898Z,3.95
2023-05-30T03:29:19.595Z,3.65
2023-05-30T03:31:49.534Z,4.13
2023-05-30T03:34:20.370Z,3.53
2023-05-30T03:36:52.174Z,4.00
2023-05-30T03:39:21.476Z,3.90
2023-05-30T03:41:49.946Z,3.70
2023-05-30T03:44:22.756Z,3.72
2023-05-30T03:46:51.660Z,4.10
2023-05-30T03:49:21.631Z,4.03
2023-05-30T03:51:50.305Z,3.58
2023-05-30T03:54:18.901Z,3.75
2023-05-30T03:56:49.136Z,3.70
2023-05-30T03:59:17.865Z,3.90
2023-05-30T04:01:46.383Z,3.83
2023-05-30T04:04:14.879Z,3.58
2023-05-30T04:06:44.970Z,3.70
2023-05-30T04:09:14.453Z,3.85
2023-05-30T04:11:44.249Z,3.35
2023-05-30T04:14:13.085Z,3.83
2023-05-30T04:16:41.366Z,3.75
2023-05-30T04:19:10.006Z,3.63
2023-05-30T04:21:39.430Z,3.75
2023-05-30T04:24:09.931Z,3.75
2023-05-30T04:26:38.927Z,4.18
2023-05-30T04:29:09.463Z,3.90
2023-05-30T04:31:38.191Z,3.97
2023-05-30T04:34:06.967Z,3.45
2023-05-30T04:36:37.746Z,3.55
2023-05-30T04:39:09.399Z,4.20
2023-05-30T04:41:38.330Z,3.70
2023-05-30T04:44:08.028Z,3.65
2023-05-30T04:46:37.361Z,3.60
2023-05-30T04:49:07.074Z,3.80
2023-05-30T04:51:35.830Z,3.25
2023-05-30T04:54:04.753Z,3.47
2023-05-30T04:56:34.481Z,3.38
2023-05-30T04:59:02.932Z,4.10
2023-05-30T05:01:32.340Z,3.60
2023-05-30T05:04:02.229Z,3.60
2023-05-30T05:06:30.934Z,3.67
2023-05-30T05:09:00.821Z,3.75
2023-05-30T05:11:29.829Z,3.70
2023-05-30T05:13:59.523Z,3.70
2023-05-30T05:16:28.216Z,3.35
2023-05-30T05:18:56.903Z,3.47
2023-05-30T05:21:25.541Z,3.75
2023-05-30T05:23:54.207Z,3.97
2023-05-30T05:26:23.881Z,3.60
2023-05-30T05:28:54.120Z,3.53
2023-05-30T05:31:23.848Z,3.58
2023-05-30T05:33:52.466Z,3.72
2023-05-30T05:36:21.846Z,3.40
2023-05-30T05:38:50.122Z,3.25
2023-05-30T05:41:18.831Z,3.30
2023-05-30T05:43:47.489Z,3.85
2023-05-30T05:46:16.132Z,3.53
2023-05-30T05:48:46.268Z,3.42
2023-05-30T05:51:14.540Z,3.80
2023-05-30T05:53:43.233Z,3.53
2023-05-30T05:56:11.839Z,3.60
2023-05-30T05:58:40.328Z,3.40
2023-05-30T06:01:09.031Z,3.40
2023-05-30T06:03:37.699Z,3.72
2023-05-30T06:06:09.025Z,3.38
2023-05-30T06:08:39.738Z,3.67
2023-05-30T06:11:08.387Z,3.40
2023-05-30T06:13:37.031Z,3.30
2023-05-30T06:16:06.378Z,3.45
2023-05-30T06:18:35.100Z,3.45
2023-05-30T06:21:05.931Z,3.83
2023-05-30T06:23:36.216Z,3.58
2023-05-30T06:26:04.972Z,3.50
2023-05-30T06:28:33.632Z,3.47
2023-05-30T06:31:02.261Z,3.38
2023-05-30T06:33:30.957Z,3.60
2023-05-30T06:35:59.430Z,3.10
2023-05-30T06:38:27.819Z,3.67
2023-05-30T06:40:58.036Z,3.60
2023-05-30T06:43:26.872Z,3.63
2023-05-30T06:45:55.569Z,3.53
2023-05-30T06:48:23.890Z,3.15
2023-05-30T06:50:52.544Z,3.65
2023-05-30T06:53:20.919Z,3.40
2023-05-30T06:55:49.836Z,3.50
2023-05-30T06:58:20.306Z,3.00
2023-05-30T07:00:48.670Z,3.95
2023-05-30T07:03:17.136Z,3.30
2023-05-30T07:05:46.760Z,3.30
2023-05-30T07:08:17.477Z,3.67
2023-05-30T07:10:46.830Z,3.40
2023-05-30T07:13:15.085Z,3.05
2023-05-30T07:15:45.173Z,3.35
2023-05-30T07:18:13.458Z,3.22
2023-05-30T07:20:42.173Z,3.25
2023-05-30T07:23:10.798Z,3.63
2023-05-30T07:25:39.521Z,3.22
2023-05-30T07:28:08.748Z,3.30
2023-05-30T07:30:37.136Z,3.25
2023-05-30T07:33:06.964Z,3.25
2023-05-30T07:35:35.472Z,3.70
2023-05-30T07:38:04.299Z,3.33
2023-05-30T07:40:33.005Z,3.28
2023-05-30T07:43:01.480Z,3.17
2023-05-30T07:45:29.895Z,3.65
2023-05-30T07:47:58.315Z,3.42
2023-05-30T07:50:28.391Z,3.33
2023-05-30T07:52:56.694Z,3.38
2023-05-30T07:55:25.564Z,3.55
2023-05-30T07:57:54.169Z,3.35
2023-05-30T08:00:23.198Z,3.30
2023-05-30T08:02:52.334Z,2.97
2023-05-30T08:05:20.726Z,3.33
2023-05-30T08:07:50.489Z,3.40
2023-05-30T08:10:19.072Z,4.00
2023-05-30T08:12:47.445Z,3.40
2023-05-30T08:15:15.924Z,4.10
2023-05-30T08:17:45.718Z,4.00
2023-05-30T08:20:14.635Z,3.28
2023-05-30T08:22:43.222Z,3.65
2023-05-30T08:25:13.005Z,3.22
2023-05-30T08:27:43.574Z,3.38
2023-05-30T08:30:13.768Z,3.22
2023-05-30T08:32:42.593Z,3.70
2023-05-30T08:35:11.274Z,3.20
2023-05-30T08:37:39.737Z,3.20
2023-05-30T08:40:13.937Z,3.42
2023-05-30T08:42:44.039Z,3.70
2023-05-30T08:45:13.610Z,3.53
2023-05-30T08:47:43.399Z,3.25
2023-05-30T08:50:13.564Z,3.20
2023-05-30T08:52:47.860Z,3.17
2023-05-30T08:55:24.323Z,3.35
2023-05-30T08:57:59.064Z,3.42
2023-05-30T09:00:28.435Z,3.42
2023-05-30T09:02:59.236Z,3.30
2023-05-30T09:05:30.391Z,3.33
2023-05-30T09:07:59.945Z,3.45
2023-05-30T09:10:31.075Z,3.30
2023-05-30T09:13:00.809Z,3.63
2023-05-30T09:15:29.243Z,3.17
2023-05-30T09:17:58.472Z,3.58
2023-05-30T09:20:31.378Z,3.80
2023-05-30T09:23:00.193Z,3.28
2023-05-30T09:25:44.298Z,3.13
2023-05-30T09:28:13.808Z,3.47
2023-05-30T09:31:01.441Z,3.38
2023-05-30T09:33:46.133Z,3.13
2023-05-30T09:36:20.720Z,3.33
2023-05-30T09:38:57.076Z,3.00
2023-05-30T09:41:28.786Z,3.47
2023-05-30T09:43:59.867Z,3.45
2023-05-30T09:46:31.380Z,3.28
2023-05-30T09:49:00.034Z,3.30
2023-05-30T09:51:30.667Z,3.17
2023-05-30T09:54:03.207Z,3.40
2023-05-30T09:56:37.769Z,3.33
2023-05-30T09:59:10.628Z,3.20
2023-05-30T10:01:40.975Z,3.30
2023-05-30T10:04:17.308Z,3.70
2023-05-30T10:06:48.384Z,3.35
2023-05-30T10:09:17.490Z,3.55
2023-05-30T10:11:47.220Z,3.50
2023-05-30T10:14:16.522Z,3.22
2023-05-30T10:16:51.240Z,3.25
2023-05-30T10:19:24.425Z,3.40
2023-05-30T10:24:29.598Z,3.15
2023-05-30T10:27:05.051Z,3.38
2023-05-30T10:29:40.564Z,2.92
2023-05-30T10:32:10.272Z,3.33
2023-05-30T10:34:49.149Z,3.10
2023-05-30T10:37:18.846Z,3.30
2023-05-30T10:40:07.560Z,3.28
2023-05-30T10:42:48.702Z,3.72
2023-05-30T10:45:22.646Z,3.20
2023-05-30T10:48:04.361Z,3.22
2023-05-30T10:50:43.904Z,3.40
2023-05-30T10:53:17.224Z,3.40
2023-05-30T10:55:48.611Z,3.50
2023-05-30T10:58:51.825Z,3.63
2023-05-30T11:01:31.210Z,3.30
2023-05-30T11:04:05.894Z,3.63
2023-05-30T11:06:36.725Z,3.30
2023-05-30T11:09:11.250Z,3.33
2023-05-30T11:11:42.450Z,3.58
2023-05-30T11:14:13.619Z,3.40
2023-05-30T11:16:59.151Z,3.33
2023-05-30T11:19:28.594Z,3.63
2023-05-30T11:22:02.660Z,3.63
2023-05-30T11:24:33.111Z,3.58
2023-05-30T11:27:10.253Z,3.40
2023-05-30T11:29:49.163Z,3.72
2023-05-30T11:32:21.928Z,3.38
2023-05-30T11:35:03.332Z,3.92
2023-05-30T11:37:36.576Z,3.35
2023-05-30T11:40:09.991Z,3.65
2023-05-30T11:42:38.293Z,3.40
2023-05-30T11:45:11.164Z,3.42
2023-05-30T11:47:46.504Z,3.30
2023-05-30T11:50:15.338Z,3.50
2023-05-30T11:52:44.744Z,3.40
2023-05-30T11:55:14.811Z,3.30
2023-05-30T11:57:43.714Z,3.20
2023-05-30T12:00:14.814Z,3.80
2023-05-30T12:02:44.835Z,3.72
2023-05-30T12:05:15.770Z,3.53
2023-05-30T12:07:44.749Z,3.30
2023-05-30T12:10:13.020Z,3.67
2023-05-30T12:12:41.663Z,3.50
2023-05-30T12:15:11.722Z,3.45
2023-05-30T12:17:43.412Z,3.63
2023-05-30T12:20:18.053Z,2.88
2023-05-30T12:22:48.336Z,3.35
2023-05-30T12:25:16.922Z,3.35
2023-05-30T12:27:48.209Z,3.50
2023-05-30T12:30:19.263Z,3.40
2023-05-30T12:32:49.843Z,3.88
2023-05-30T12:35:26.847Z,3.58
2023-05-30T12:37:58.397Z,3.60
2023-05-30T12:40:28.416Z,3.90
2023-05-30T12:42:58.902Z,3.45
2023-05-30T12:45:27.288Z,3.63
2023-05-30T12:47:57.217Z,3.47
2023-05-30T12:50:25.913Z,3.40
2023-05-30T12:52:54.288Z,3.40
2023-05-30T12:55:22.897Z,3.25
2023-05-30T12:57:51.509Z,3.90
2023-05-30T13:00:21.555Z,3.15
2023-05-30T13:02:50.236Z,3.58
2023-05-30T13:05:20.505Z,3.80
2023-05-30T13:07:49.165Z,3.60
2023-05-30T13:10:18.270Z,3.40
2023-05-30T13:12:46.638Z,3.58
2023-05-30T13:15:15.333Z,3.83
2023-05-30T13:17:43.626Z,3.88
2023-05-30T13:20:13.201Z,3.70
2023-05-30T13:22:42.930Z,3.80
2023-05-30T13:25:11.886Z,3.97
2023-05-30T13:27:40.480Z,3.70
2023-05-30T13:30:11.455Z,4.03
2023-05-30T13:32:39.804Z,3.70
2023-05-30T13:35:09.336Z,3.40
2023-05-30T13:37:38.046Z,3.40
2023-05-30T13:40:11.065Z,3.40
2023-05-30T13:42:39.890Z,3.28
2023-05-30T13:45:09.880Z,3.25
2023-05-30T13:47:38.301Z,3.63
2023-05-30T13:50:08.458Z,3.20
2023-05-30T13:52:37.074Z,3.55
2023-05-30T13:55:08.752Z,3.30
2023-05-30T13:57:37.402Z,3.40
2023-05-30T14:00:06.747Z,3.17
2023-05-30T14:02:35.216Z,3.20
2023-05-30T14:05:03.764Z,3.10
2023-05-30T14:07:32.334Z,3.40
2023-05-30T14:10:00.982Z,3.70
2023-05-30T14:12:31.057Z,3.28
2023-05-30T14:15:01.928Z,3.40
2023-05-30T14:17:30.377Z,3.40
2023-05-30T14:19:58.818Z,3.28
2023-05-30T14:22:27.175Z,3.60
2023-05-30T14:24:55.896Z,3.35
2023-05-30T14:27:24.619Z,3.42
2023-05-30T14:29:54.507Z,3.38
2023-05-30T14:32:23.129Z,3.10
2023-05-30T14:34:51.677Z,3.28
2023-05-30T14:37:20.059Z,3.50
2023-05-30T14:39:49.192Z,3.20
2023-05-30T14:42:17.605Z,3.20
2023-05-30T14:44:46.314Z,3.35
2023-05-30T14:47:16.049Z,3.33
2023-05-30T14:49:45.585Z,3.03
2023-05-30T14:52:13.914Z,3.25
2023-05-30T14:54:42.551Z,3.10
2023-05-30T14:57:11.488Z,2.85
2023-05-30T14:59:40.862Z,3.63
2023-05-30T15:02:09.319Z,3.53
2023-05-30T15:04:40.041Z,3.40
2023-05-30T15:07:08.847Z,3.05
2023-05-30T15:09:37.223Z,3.33
2023-05-30T15:12:06.846Z,3.10
2023-05-30T15:14:35.754Z,3.38
2023-05-30T15:17:04.129Z,3.40
2023-05-30T15:19:32.676Z,3.05
2023-05-30T15:22:03.709Z,3.00
2023-05-30T15:24:32.486Z,3.30
2023-05-30T15:27:01.879Z,3.30
2023-05-30T15:29:30.568Z,3.20
2023-05-30T15:31:59.060Z,3.10
2023-05-30T15:34:27.493Z,3.45
2023-05-30T15:36:56.209Z,5.43
2023-05-30T15:39:25.951Z,3.65
2023-05-30T15:41:54.237Z,3.58
2023-05-30T15:44:22.980Z,5.53
2023-05-30T15:47:00.075Z,4.30
2023-05-30T15:49:29.998Z,3.40
2023-05-30T15:51:58.755Z,3.30
2023-05-30T15:54:28.480Z,3.25
2023-05-30T15:56:56.873Z,3.60
2023-05-30T15:59:28.093Z,3.50
2023-05-30T16:01:57.467Z,3.00
2023-05-30T16:04:26.159Z,3.10
2023-05-30T16:06:57.611Z,3.20
2023-05-30T16:09:27.987Z,3.13
2023-05-30T16:11:56.453Z,2.92
2023-05-30T16:14:26.032Z,3.00
2023-05-30T16:16:54.462Z,3.13
2023-05-30T16:19:23.209Z,3.28
2023-05-30T16:21:52.149Z,2.95
2023-05-30T16:24:20.556Z,3.15
2023-05-30T16:26:50.625Z,3.00
2023-05-30T16:29:19.664Z,3.00
2023-05-30T16:31:48.345Z,2.97
2023-05-30T16:34:17.011Z,2.85
2023-05-30T16:36:46.047Z,3.05
2023-05-30T16:39:14.523Z,3.30
2023-05-30T16:41:43.226Z,3.13
2023-05-30T16:44:13.487Z,2.72
2023-05-30T16:46:43.753Z,3.50
2023-05-30T16:49:13.897Z,2.90
2023-05-30T16:51:42.220Z,3.17
2023-05-30T16:54:11.043Z,3.15
2023-05-30T16:56:39.419Z,2.83
2023-05-30T16:59:07.966Z,2.80
2023-05-30T17:01:37.975Z,2.97
2023-05-30T17:04:06.312Z,2.90
2023-05-30T17:06:34.728Z,2.80
2023-05-30T17:09:03.467Z,2.60
2023-05-30T17:11:31.814Z,2.78
2023-05-30T17:14:00.417Z,3.05
2023-05-30T17:16:28.748Z,3.20
2023-05-30T17:18:59.610Z,2.55
2023-05-30T17:21:28.699Z,3.20
2023-05-30T17:23:57.022Z,3.17
2023-05-30T17:26:25.447Z,3.10
2023-05-30T17:28:54.083Z,3.05
2023-05-30T17:31:22.942Z,3.25
2023-05-30T17:33:52.935Z,2.80
2023-05-30T17:36:22.612Z,2.88
2023-05-30T17:38:51.015Z,2.70
2023-05-30T17:41:19.530Z,2.75
2023-05-30T17:43:48.229Z,3.20
2023-05-30T17:46:16.677Z,3.13
2023-05-30T17:48:46.001Z,2.78
2023-05-30T17:51:14.687Z,3.00
2023-05-30T17:53:55.093Z,2.63
2023-05-30T17:56:24.762Z,3.00
2023-05-30T17:58:53.339Z,2.80
2023-05-30T18:01:22.175Z,3.03
2023-05-30T18:03:50.898Z,2.90
2023-05-30T18:06:27.027Z,2.80
2023-05-30T18:08:57.908Z,2.72
2023-05-30T18:11:27.373Z,3.17
2023-05-30T18:13:56.058Z,2.80
2023-05-30T18:16:26.036Z,2.40
2023-05-30T18:18:54.435Z,3.00
2023-05-30T18:21:23.041Z,2.80
2023-05-30T18:23:51.750Z,3.20
2023-05-30T18:26:21.551Z,2.70
2023-05-30T18:28:49.936Z,3.20
2023-05-30T18:31:18.647Z,2.55
2023-05-30T18:33:48.084Z,2.70
2023-05-30T18:36:16.746Z,3.05
2023-05-30T18:38:47.400Z,2.55
2023-05-30T18:41:16.442Z,3.08
2023-05-30T18:43:48.202Z,2.92
2023-05-30T18:46:17.262Z,2.40
2023-05-30T18:48:47.199Z,2.85
2023-05-30T18:51:16.771Z,2.60
2023-05-30T18:53:46.704Z,2.88
2023-05-30T18:56:15.662Z,2.80
2023-05-30T18:58:45.839Z,2.60
2023-05-30T19:01:14.202Z,2.92
2023-05-30T19:03:43.264Z,2.53
2023-05-30T19:06:11.722Z,2.90
2023-05-30T19:08:41.360Z,2.97
2023-05-30T19:11:10.036Z,3.00
2023-05-30T19:13:38.851Z,2.67
2023-05-30T19:16:09.716Z,2.95
2023-05-30T19:18:38.241Z,2.83
2023-05-30T19:21:07.196Z,2.53
2023-05-30T19:23:36.406Z,2.58
2023-05-30T19:26:05.423Z,2.33
2023-05-30T19:28:37.406Z,2.42
2023-05-30T19:31:11.547Z,2.58
2023-05-30T19:33:42.572Z,2.80
2023-05-30T19:36:11.429Z,2.45
2023-05-30T19:38:40.138Z,2.75
2023-05-30T19:41:08.782Z,2.38
2023-05-30T19:43:37.833Z,2.58
2023-05-30T19:46:08.131Z,2.28
2023-05-30T19:48:36.784Z,2.78
2023-05-30T19:51:07.447Z,2.75
2023-05-30T19:53:36.314Z,2.17
2023-05-30T19:56:05.870Z,2.05
2023-05-30T19:58:34.712Z,2.58
2023-05-30T20:01:03.807Z,2.17
2023-05-30T20:03:33.075Z,2.17
2023-05-30T20:06:03.569Z,1.85
2023-05-30T20:08:34.039Z,1.88
2023-05-30T20:11:02.845Z,2.28
2023-05-30T20:13:31.769Z,2.05
2023-05-30T20:16:00.899Z,1.95
2023-05-30T20:18:29.786Z,2.20
2023-05-30T20:20:58.755Z,2.03
2023-05-30T20:23:27.638Z,2.22
2023-05-30T20:25:57.917Z,1.85
2023-05-30T20:28:26.520Z,2.30
2023-05-30T20:30:58.500Z,1.95
2023-05-30T20:33:27.404Z,1.90
2023-05-30T20:35:55.784Z,1.67
2023-05-30T20:38:24.462Z,2.00
2023-05-30T20:40:53.107Z,2.05
2023-05-30T20:43:24.512Z,2.10
2023-05-30T20:45:53.628Z,1.83
2023-05-30T20:48:21.931Z,1.70
2023-05-30T20:50:50.182Z,2.60
2023-05-30T20:53:19.081Z,1.95
2023-05-30T20:55:48.566Z,1.85
2023-05-30T20:58:18.769Z,2.00
2023-05-30T21:00:48.719Z,2.08
2023-05-30T21:03:17.473Z,1.77
2023-05-30T21:05:46.128Z,1.73
2023-05-30T21:08:15.590Z,1.80
2023-05-30T21:10:44.727Z,1.95
2023-05-30T21:13:13.373Z,1.67
2023-05-30T21:15:42.934Z,1.63
2023-05-30T21:18:13.418Z,1.80
2023-05-30T21:20:41.746Z,1.50
2023-05-30T21:23:10.381Z,1.70
2023-05-30T21:25:40.806Z,1.77
2023-05-30T21:28:09.609Z,1.85
2023-05-30T21:30:38.346Z,1.63
2023-05-30T21:33:07.085Z,1.55
2023-05-30T21:35:36.911Z,1.60
2023-05-30T21:38:05.232Z,1.60
2023-05-30T21:40:33.542Z,1.77
2023-05-30T21:43:01.901Z,2.10
2023-05-30T21:45:30.574Z,1.48
2023-05-30T21:47:59.244Z,1.90
2023-05-30T21:50:28.014Z,1.92
2023-05-30T21:52:57.875Z,1.83
2023-05-30T21:55:26.785Z,1.60
2023-05-30T21:57:55.789Z,1.60
2023-05-30T22:00:24.475Z,1.70
2023-05-30T22:02:53.272Z,1.88
2023-05-30T22:05:22.096Z,1.70
2023-05-30T22:07:50.756Z,1.83
2023-05-30T22:10:20.971Z,1.60
2023-05-30T22:12:49.666Z,1.92
2023-05-30T22:15:18.423Z,1.70
2023-05-30T22:17:47.628Z,1.80
2023-05-30T22:20:16.404Z,1.83
2023-05-30T22:22:44.864Z,1.73
2023-05-30T22:25:13.378Z,1.77
2023-05-30T22:27:43.060Z,1.42
2023-05-30T22:30:12.057Z,1.80
2023-05-30T22:32:40.742Z,1.75
2023-05-30T22:35:09.910Z,1.67
2023-05-30T22:37:38.645Z,1.80
2023-05-30T22:40:08.961Z,1.92
2023-05-30T22:42:37.639Z,1.75
2023-05-30T22:45:09.553Z,1.80
2023-05-30T22:47:38.238Z,1.40
2023-05-30T22:50:07.876Z,1.67
2023-05-30T22:52:36.827Z,1.83
2023-05-30T22:55:05.939Z,2.08
2023-05-30T22:57:34.545Z,1.63
2023-05-30T23:00:05.132Z,1.90
2023-05-30T23:02:34.999Z,1.50
2023-05-30T23:05:03.697Z,1.70
2023-05-30T23:07:32.415Z,1.65
2023-05-30T23:10:00.925Z,2.03
2023-05-30T23:12:29.576Z,1.60
2023-05-30T23:14:58.364Z,1.83
2023-05-30T23:17:27.372Z,1.58
2023-05-30T23:19:57.004Z,1.80
2023-05-30T23:22:25.371Z,1.83
2023-05-30T23:24:54.212Z,1.52
2023-05-30T23:27:22.958Z,1.88
2023-05-30T23:29:51.709Z,1.63
2023-05-30T23:32:20.784Z,2.05
2023-05-30T23:34:49.389Z,2.00
2023-05-30T23:37:19.421Z,1.63
2023-05-30T23:39:48.546Z,1.55
2023-05-30T23:42:16.993Z,1.65
2023-05-30T23:44:45.471Z,1.75
2023-05-30T23:47:14.367Z,1.60
2023-05-30T23:49:43.221Z,1.83
2023-05-30T23:52:11.852Z,1.60
2023-05-30T23:54:41.501Z,1.80
2023-05-30T23:57:09.949Z,1.80
2023-05-30T23:59:41.525Z,1.50
